| time (UTC) | temp F | wind direction | speed MPH | gust MPH | rain 1hr in | rain 24hr in | rain mn in | humidity % | barometer mb |
| 20260507104526 | 48 | 180 | 0.0 | 2.0 | 0.07 | 0.34 | 0.31 | 91 | 1011.7 |
| 20260507103522 | 48 | 203 | 0.0 | 2.0 | 0.07 | 0.33 | 0.30 | 91 | 1011.5 |
| 20260507102521 | 48 | 225 | 0.0 | 2.0 | 0.07 | 0.32 | 0.28 | 91 | 1011.4 |
| 20260507101516 | 48 | 270 | 0.0 | 2.0 | 0.06 | 0.31 | 0.27 | 91 | 1011.4 |
| 20260507100614 | 48 | 270 | 1.0 | 2.0 | 0.06 | 0.30 | 0.26 | 92 | 1011.3 |
| 20260507095610 | 48 | 238 | 0.0 | 2.0 | 0.05 | 0.28 | 0.25 | 92 | 1011.1 |
| 20260507094608 | 48 | 0.0 | 1.0 | 0.05 | 0.27 | 0.24 | 92 | 1011.0 | |
| 20260507093603 | 47 | 135 | 0.0 | 2.0 | 0.04 | 0.26 | 0.22 | 92 | 1010.9 |
| 20260507092621 | 47 | 0.0 | 1.0 | 0.02 | 0.25 | 0.21 | 92 | 1010.8 | |
| 20260507091556 | 47 | 0.0 | 2.0 | 0.04 | 0.25 | 0.21 | 92 | 1010.6 | |
| 20260507090554 | 47 | 0.0 | 1.0 | 0.04 | 0.24 | 0.20 | 92 | 1010.5 | |
| 20260507085549 | 47 | 273 | 1.0 | 2.0 | 0.04 | 0.24 | 0.20 | 93 | 1010.3 |
| 20260507084546 | 47 | 225 | 1.0 | 3.0 | 0.02 | 0.22 | 0.19 | 93 | 1010.2 |
| 20260507083543 | 47 | 217 | 1.0 | 2.0 | 0.02 | 0.22 | 0.19 | 93 | 1010.1 |
| 20260507082540 | 47 | 0.0 | 1.0 | 0.02 | 0.22 | 0.19 | 93 | 1009.9 | |
| 20260507081556 | 47 | 206 | 1.0 | 3.0 | 0.01 | 0.21 | 0.18 | 93 | 1009.7 |
| 20260507080533 | 47 | 248 | 1.0 | 3.0 | 0.00 | 0.20 | 0.17 | 93 | 1009.7 |
| 20260507075531 | 47 | 135 | 1.0 | 5.0 | 0.01 | 0.20 | 0.17 | 93 | 1009.5 |
| 20260507074526 | 47 | 203 | 0.0 | 2.0 | 0.02 | 0.20 | 0.17 | 93 | 1009.4 |
| 20260507073523 | 47 | 299 | 1.0 | 2.0 | 0.05 | 0.20 | 0.17 | 93 | 1009.3 |
| 20260507072519 | 47 | 230 | 1.0 | 2.0 | 0.05 | 0.20 | 0.17 | 93 | 1009.3 |
| 20260507071517 | 47 | 315 | 0.0 | 2.0 | 0.07 | 0.20 | 0.17 | 93 | 1009.3 |
| 20260507070613 | 47 | 270 | 1.0 | 2.0 | 0.09 | 0.20 | 0.17 | 92 | 1009.2 |
| 20260507065610 | 47 | 180 | 0.0 | 2.0 | 0.09 | 0.19 | 0.15 | 92 | 1009.1 |
| 20260507064607 | 47 | 6 | 2.0 | 4.0 | 0.09 | 0.18 | 0.14 | 92 | 1009.0 |
| 20260507063603 | 47 | 225 | 2.0 | 3.0 | 0.09 | 0.15 | 0.12 | 92 | 1008.8 |
| 20260507062600 | 47 | 310 | 1.0 | 2.0 | 0.11 | 0.15 | 0.12 | 91 | 1008.6 |
| 20260507061556 | 47 | 202 | 1.0 | 4.0 | 0.08 | 0.13 | 0.09 | 91 | 1008.5 |
| 20260507060553 | 48 | 270 | 1.0 | 2.0 | 0.06 | 0.11 | 0.07 | 91 | 1008.2 |
| 20260507055550 | 48 | 270 | 0.0 | 2.0 | 0.05 | 0.09 | 0.06 | 91 | 1007.9 |
| 20260507054546 | 49 | 229 | 2.0 | 4.0 | 0.04 | 0.08 | 0.05 | 91 | 1007.9 |
| 20260507053543 | 49 | 315 | 1.0 | 4.0 | 0.01 | 0.06 | 0.02 | 91 | 1007.7 |
| 20260507052540 | 50 | 0.0 | 2.0 | 0.00 | 0.05 | 0.01 | 92 | 1007.5 | |
| 20260507051537 | 50 | 0.0 | 1.0 | 0.00 | 0.05 | 0.01 | 92 | 1007.4 | |
| 20260507050533 | 50 | 150 | 0.0 | 2.0 | 0.00 | 0.05 | 0.01 | 92 | 1007.2 |
| 20260507045630 | 50 | 180 | 0.0 | 2.0 | 0.00 | 0.06 | 0.01 | 92 | 1007.2 |
| 20260507044525 | 50 | 135 | 0.0 | 2.0 | 0.00 | 0.06 | 0.01 | 92 | 1007.1 |
| 20260507043522 | 50 | 0.0 | 1.0 | 0.00 | 0.06 | 0.01 | 92 | 1006.9 | |
| 20260507042519 | 50 | 180 | 0.0 | 2.0 | 0.00 | 0.08 | 0.01 | 92 | 1006.8 |
| 20260507041515 | 50 | 0.0 | 1.0 | 0.01 | 0.09 | 0.01 | 92 | 1006.7 | |
| 20260507040634 | 50 | 45 | 2.0 | 3.0 | 0.01 | 0.09 | 0.01 | 91 | 1006.6 |
| 20260507035630 | 50 | 135 | 0.0 | 2.0 | 0.01 | 0.11 | 0.01 | 91 | 1006.6 |
| 20260507034605 | 50 | 0.0 | 1.0 | 0.01 | 0.12 | 0.01 | 91 | 1006.5 | |
| 20260507033602 | 50 | 0.0 | 2.0 | 0.01 | 0.12 | 0.01 | 91 | 1006.5 | |
| 20260507032559 | 50 | 0.0 | 2.0 | 0.01 | 0.13 | 0.01 | 92 | 1006.4 | |
| 20260507031557 | 50 | 135 | 0.0 | 2.0 | 0.00 | 0.13 | 0.00 | 92 | 1006.3 |
| 20260507030552 | 51 | 158 | 0.0 | 2.0 | 0.00 | 0.14 | 0.00 | 92 | 1006.3 |
| 20260507025550 | 51 | 0.0 | 2.0 | 0.00 | 0.17 | 0.00 | 92 | 1006.2 | |
| 20260507024545 | 51 | 0.0 | 2.0 | 0.00 | 0.17 | 0.00 | 92 | 1006.2 | |
| 20260507023542 | 51 | 0.0 | 2.0 | 0.00 | 0.17 | 0.00 | 92 | 1006.1 | |
| 20260507022539 | 51 | 0.0 | 1.0 | 0.00 | 0.18 | 0.00 | 92 | 1006.2 | |
| 20260507021537 | 51 | 0.0 | 1.0 | 0.00 | 0.18 | 0.00 | 92 | 1006.2 | |
| 20260507020532 | 51 | 0.0 | 0.0 | 0.00 | 0.21 | 0.00 | 92 | 1006.2 | |
| 20260507015528 | 52 | 0.0 | 1.0 | 0.00 | 0.24 | 0.00 | 91 | 1006.2 | |
| 20260507014525 | 52 | 0.0 | 2.0 | 0.00 | 0.26 | 0.00 | 91 | 1006.1 | |
| 20260507013522 | 52 | 0.0 | 1.0 | 0.00 | 0.28 | 0.00 | 91 | 1006.2 | |
| 20260507012520 | 52 | 0.0 | 2.0 | 0.00 | 0.30 | 0.00 | 90 | 1006.1 | |
| 20260507011517 | 52 | 0.0 | 2.0 | 0.00 | 0.31 | 0.00 | 90 | 1006.0 | |
| 20260507010612 | 52 | 0.0 | 1.0 | 0.00 | 0.32 | 0.00 | 90 | 1006.0 | |
| 20260507005630 | 52 | 0.0 | 0.0 | 0.00 | 0.33 | 0.00 | 89 | 1006.0 | |
| 20260507004607 | 52 | 0.0 | 0.0 | 0.00 | 0.33 | 0.00 | 89 | 1005.8 | |
| 20260507003622 | 52 | 0.0 | 0.0 | 0.00 | 0.33 | 0.00 | 89 | 1005.8 | |
| 20260507002600 | 52 | 0.0 | 1.0 | 0.00 | 0.33 | 0.00 | 89 | 1005.8 | |
| 20260507001555 | 53 | 0.0 | 1.0 | 0.00 | 0.34 | 0.00 | 90 | 1005.8 | |
| 20260507000613 | 53 | 0.0 | 0.0 | 0.00 | 0.35 | 0.00 | 90 | 1005.8 | |
| 20260506235550 | 53 | 0.0 | 1.0 | 0.00 | 0.35 | 0.00 | 90 | 1005.8 | |
| 20260506234545 | 53 | 0.0 | 1.0 | 0.00 | 0.37 | 0.00 | 91 | 1005.7 | |
| 20260506233542 | 53 | 0.0 | 1.0 | 0.00 | 0.37 | 0.00 | 91 | 1005.7 | |
| 20260506232540 | 53 | 0.0 | 1.0 | 0.00 | 0.38 | 0.00 | 91 | 1005.6 | |
| 20260506231537 | 53 | 0.0 | 1.0 | 0.00 | 0.38 | 0.00 | 91 | 1005.5 | |
| 20260506230532 | 53 | 0.0 | 1.0 | 0.00 | 0.39 | 0.00 | 92 | 1005.6 | |
| 20260506225558 | 53 | 0.0 | 1.0 | 0.00 | 0.40 | 0.00 | 92 | 1005.7 | |
| 20260506224555 | 53 | 0.0 | 1.0 | 0.00 | 0.41 | 0.00 | 92 | 1005.6 | |
| 20260506223551 | 53 | 0.0 | 1.0 | 0.00 | 0.43 | 0.00 | 92 | 1005.5 | |
| 20260506222548 | 53 | 315 | 1.0 | 2.0 | 0.00 | 0.44 | 0.00 | 92 | 1005.4 |
| 20260506221547 | 53 | 0.0 | 0.0 | 0.00 | 0.44 | 0.00 | 92 | 1005.2 | |
| 20260506220541 | 53 | 0.0 | 0.0 | 0.00 | 0.47 | 0.00 | 91 | 1005.1 | |
| 20260506215538 | 53 | 170 | 1.0 | 2.0 | 0.00 | 0.47 | 0.47 | 91 | 1005.1 |
| 20260506214535 | 53 | 0.0 | 0.0 | 0.00 | 0.48 | 0.47 | 91 | 1005.1 | |
| 20260506213532 | 53 | 0.0 | 1.0 | 0.00 | 0.50 | 0.47 | 91 | 1005.0 | |
| 20260506212528 | 54 | 0.0 | 0.0 | 0.00 | 0.50 | 0.47 | 91 | 1004.8 | |
| 20260506211526 | 54 | 180 | 0.0 | 2.0 | 0.00 | 0.51 | 0.47 | 91 | 1004.8 |
| 20260506210521 | 54 | 0.0 | 1.0 | 0.00 | 0.51 | 0.47 | 91 | 1004.7 | |
| 20260506205518 | 54 | 90 | 0.0 | 2.0 | 0.00 | 0.52 | 0.47 | 90 | 1004.6 |
| 20260506204616 | 55 | 0.0 | 2.0 | 0.00 | 0.52 | 0.47 | 88 | 1004.7 | |
| 20260506203611 | 55 | 0.0 | 1.0 | 0.00 | 0.52 | 0.47 | 88 | 1004.8 | |
| 20260506202608 | 55 | 150 | 0.0 | 2.0 | 0.00 | 0.52 | 0.47 | 88 | 1004.9 |
| 20260506201606 | 55 | 360 | 0.0 | 2.0 | 0.00 | 0.52 | 0.47 | 89 | 1004.8 |
| 20260506200603 | 55 | 180 | 1.0 | 2.0 | 0.00 | 0.52 | 0.47 | 89 | 1004.8 |
| 20260506195600 | 55 | 303 | 1.0 | 4.0 | 0.00 | 0.52 | 0.47 | 89 | 1004.6 |
| 20260506194554 | 55 | 270 | 1.0 | 4.0 | 0.00 | 0.52 | 0.47 | 89 | 1004.7 |
| 20260506193551 | 55 | 135 | 0.0 | 2.0 | 0.00 | 0.52 | 0.47 | 89 | 1004.6 |
| 20260506192609 | 56 | 135 | 0.0 | 2.0 | 0.00 | 0.52 | 0.47 | 89 | 1004.5 |
| 20260506191544 | 56 | 0.0 | 1.0 | 0.00 | 0.52 | 0.47 | 89 | 1004.4 | |
| 20260506190541 | 56 | 265 | 1.0 | 2.0 | 0.00 | 0.52 | 0.47 | 89 | 1004.1 |
| 20260506185539 | 56 | 135 | 0.0 | 2.0 | 0.00 | 0.52 | 0.47 | 88 | 1003.9 |
| 20260506184534 | 56 | 225 | 0.0 | 2.0 | 0.00 | 0.52 | 0.47 | 87 | 1003.6 |
| 20260506183530 | 57 | 128 | 0.0 | 2.0 | 0.00 | 0.52 | 0.47 | 88 | 1003.5 |
| 20260506182527 | 57 | 153 | 1.0 | 3.0 | 0.01 | 0.52 | 0.47 | 88 | 1003.2 |
| 20260506181524 | 57 | 313 | 3.0 | 4.0 | 0.02 | 0.52 | 0.47 | 87 | 1003.4 |
| 20260506180522 | 57 | 180 | 2.0 | 2.0 | 0.04 | 0.52 | 0.47 | 86 | 1003.2 |
| 20260506175517 | 58 | 225 | 0.0 | 2.0 | 0.04 | 0.52 | 0.47 | 85 | 1003.1 |
| 20260506174613 | 58 | 270 | 0.0 | 3.0 | 0.04 | 0.52 | 0.47 | 85 | 1003.2 |
| 20260506173612 | 58 | 237 | 1.0 | 3.0 | 0.04 | 0.52 | 0.47 | 83 | 1003.1 |
| 20260506172607 | 59 | 168 | 0.0 | 2.0 | 0.02 | 0.51 | 0.46 | 82 | 1003.0 |
| 20260506171604 | 59 | 213 | 0.0 | 2.0 | 0.01 | 0.50 | 0.45 | 81 | 1003.1 |
| 20260506170601 | 59 | 230 | 1.0 | 2.0 | 0.00 | 0.48 | 0.44 | 81 | 1003.4 |
| 20260506165558 | 60 | 259 | 1.0 | 3.0 | 0.00 | 0.48 | 0.44 | 80 | 1003.1 |
| 20260506164553 | 60 | 252 | 1.0 | 3.0 | 0.00 | 0.48 | 0.44 | 78 | 1002.9 |
| 20260506163551 | 61 | 231 | 2.0 | 4.0 | 0.00 | 0.48 | 0.44 | 76 | 1003.0 |
| 20260506162547 | 61 | 206 | 2.0 | 4.0 | 0.00 | 0.48 | 0.44 | 75 | 1002.9 |
| 20260506161605 | 62 | 315 | 1.0 | 2.0 | 0.00 | 0.48 | 0.44 | 74 | 1002.8 |
| 20260506160540 | 63 | 315 | 2.0 | 4.0 | 0.00 | 0.48 | 0.44 | 73 | 1002.7 |
| 20260506155537 | 64 | 135 | 1.0 | 3.0 | 0.00 | 0.48 | 0.44 | 71 | 1002.6 |
| 20260506154533 | 64 | 135 | 1.0 | 2.0 | 0.00 | 0.48 | 0.44 | 69 | 1002.6 |
| 20260506153530 | 65 | 128 | 1.0 | 3.0 | 0.00 | 0.48 | 0.44 | 66 | 1002.7 |
| 20260506152528 | 66 | 311 | 1.0 | 2.0 | 0.00 | 0.48 | 0.44 | 63 | 1002.7 |
| 20260506151525 | 69 | 237 | 2.0 | 4.0 | 0.00 | 0.48 | 0.44 | 61 | 1002.7 |
| 20260506150520 | 71 | 189 | 2.0 | 4.0 | 0.00 | 0.48 | 0.44 | 61 | 1002.7 |
| 20260506145518 | 68 | 105 | 1.0 | 3.0 | 0.00 | 0.48 | 0.44 | 67 | 1002.9 |
| 20260506144655 | 66 | 255 | 0.0 | 3.0 | 0.00 | 0.48 | 0.44 | 66 | 1002.9 |
| 20260506143610 | 66 | 141 | 1.0 | 2.0 | 0.00 | 0.48 | 0.44 | 65 | 1002.7 |
| 20260506142607 | 67 | 124 | 1.0 | 2.0 | 0.00 | 0.48 | 0.44 | 64 | 1002.8 |
| 20260506141605 | 68 | 177 | 1.0 | 3.0 | 0.00 | 0.48 | 0.44 | 62 | 1002.9 |
| 20260506140600 | 69 | 135 | 2.0 | 2.0 | 0.00 | 0.48 | 0.44 | 60 | 1003.0 |
| 20260506135557 | 71 | 306 | 2.0 | 4.0 | 0.00 | 0.48 | 0.44 | 60 | 1003.1 |
| 20260506134553 | 74 | 165 | 1.0 | 2.0 | 0.00 | 0.48 | 0.44 | 54 | 1003.1 |
| 20260506133551 | 71 | 190 | 1.0 | 3.0 | 0.00 | 0.48 | 0.44 | 63 | 1003.3 |
| 20260506132548 | 67 | 311 | 2.0 | 4.0 | 0.00 | 0.48 | 0.44 | 63 | 1003.2 |
| 20260506131605 | 68 | 253 | 2.0 | 4.0 | 0.00 | 0.48 | 0.44 | 62 | 1003.3 |
| 20260506130601 | 69 | 215 | 1.0 | 3.0 | 0.00 | 0.48 | 0.44 | 63 | 1003.3 |
| 20260506125538 | 69 | 241 | 1.0 | 3.0 | 0.00 | 0.48 | 0.44 | 64 | 1003.5 |
| 20260506124533 | 67 | 238 | 1.0 | 2.0 | 0.00 | 0.48 | 0.44 | 64 | 1003.4 |
| 20260506123529 | 66 | 289 | 2.0 | 4.0 | 0.00 | 0.48 | 0.44 | 63 | 1003.3 |
| 20260506122526 | 69 | 282 | 2.0 | 4.0 | 0.00 | 0.48 | 0.44 | 60 | 1003.4 |
| 20260506121522 | 71 | 315 | 1.0 | 3.0 | 0.00 | 0.48 | 0.44 | 61 | 1003.4 |
| 20260506120519 | 68 | 315 | 2.0 | 3.0 | 0.00 | 0.48 | 0.44 | 67 | 1003.3 |
| 20260506115516 | 65 | 315 | 2.0 | 4.0 | 0.00 | 0.48 | 0.44 | 70 | 1003.3 |
| 20260506114613 | 63 | 312 | 2.0 | 4.0 | 0.00 | 0.48 | 0.44 | 72 | 1003.4 |
| 20260506113631 | 63 | 275 | 2.0 | 4.0 | 0.00 | 0.48 | 0.44 | 72 | 1003.3 |
| 20260506112606 | 63 | 270 | 2.0 | 3.0 | 0.00 | 0.48 | 0.44 | 71 | 1003.4 |
| 20260506111603 | 64 | 261 | 2.0 | 4.0 | 0.00 | 0.48 | 0.44 | 65 | 1003.6 |
| 20260506110559 | 66 | 267 | 2.0 | 4.0 | 0.00 | 0.48 | 0.44 | 65 | 1003.6 |
| 20260506105558 | 67 | 277 | 2.0 | 4.0 | 0.00 | 0.48 | 0.44 | 66 | 1003.7 |